createdAt,value
2018-01-05T00:01:46.883Z,6.83
2018-01-05T00:04:14.482Z,2.90
2018-01-05T00:06:42.859Z,4.67
2018-01-05T00:09:10.619Z,2.90
2018-01-05T00:11:38.115Z,3.73
2018-01-05T00:14:05.896Z,2.70
2018-01-05T00:16:33.743Z,3.20
2018-01-05T00:19:02.287Z,1.80
2018-01-05T00:21:29.776Z,3.53
2018-01-05T00:23:57.435Z,2.70
2018-01-05T00:26:24.969Z,3.23
2018-01-05T00:28:52.484Z,2.90
2018-01-05T00:31:19.991Z,1.60
2018-01-05T00:33:47.499Z,3.10
2018-01-05T00:36:15.410Z,3.27
2018-01-05T00:38:43.221Z,2.67
2018-01-05T00:41:10.934Z,2.17
2018-01-05T00:43:38.432Z,2.50
2018-01-05T00:46:05.987Z,2.70
2018-01-05T00:48:34.255Z,2.73
2018-01-05T00:51:01.996Z,2.67
2018-01-05T00:53:29.776Z,2.63
2018-01-05T00:55:57.668Z,3.43
2018-01-05T00:58:26.196Z,2.67
2018-01-05T01:00:54.099Z,2.80
2018-01-05T01:03:21.725Z,3.30
2018-01-05T01:05:49.627Z,2.13
2018-01-05T01:08:17.404Z,1.97
2018-01-05T01:10:45.191Z,2.13
2018-01-05T01:13:15.770Z,1.50
2018-01-05T01:15:43.309Z,1.70
2018-01-05T01:18:10.808Z,1.30
2018-01-05T01:20:38.512Z,1.90
2018-01-05T01:23:06.791Z,2.27
2018-01-05T01:25:34.290Z,2.27
2018-01-05T01:28:01.817Z,1.80
2018-01-05T01:30:30.075Z,2.13
2018-01-05T01:32:57.650Z,1.80
2018-01-05T01:35:25.157Z,1.27
2018-01-05T01:37:52.835Z,1.70
2018-01-05T01:40:20.327Z,1.43
2018-01-05T01:42:47.839Z,2.03
2018-01-05T01:45:15.511Z,1.60
2018-01-05T01:47:43.019Z,2.17
2018-01-05T01:50:10.934Z,1.47
2018-01-05T01:52:39.199Z,1.30
2018-01-05T01:55:06.863Z,1.20
2018-01-05T01:57:34.983Z,2.37
2018-01-05T02:00:02.516Z,1.33
2018-01-05T02:02:31.180Z,1.40
2018-01-05T02:04:58.857Z,1.30
2018-01-05T02:07:27.256Z,1.63
2018-01-05T02:09:55.643Z,1.63
2018-01-05T02:12:23.407Z,2.20
2018-01-05T02:14:50.908Z,1.60
2018-01-05T02:17:18.909Z,1.90
2018-01-05T02:19:46.408Z,1.77
2018-01-05T02:22:13.920Z,1.17
2018-01-05T02:24:41.415Z,1.70
2018-01-05T02:27:09.388Z,2.13
2018-01-05T02:29:37.141Z,1.40
2018-01-05T02:32:05.356Z,2.10
2018-01-05T02:34:33.632Z,1.47
2018-01-05T02:37:01.312Z,1.97
2018-01-05T02:39:29.111Z,2.37
2018-01-05T02:41:56.605Z,1.60
2018-01-05T02:44:24.336Z,1.30
2018-01-05T02:46:52.097Z,1.53
2018-01-05T02:49:21.283Z,1.03
2018-01-05T02:51:48.793Z,2.10
2018-01-05T02:54:16.307Z,1.53
2018-01-05T02:56:43.933Z,2.17
2018-01-05T02:59:11.434Z,2.50
2018-01-05T03:01:38.979Z,1.77
2018-01-05T03:04:06.752Z,2.17
2018-01-05T03:06:34.243Z,2.30
2018-01-05T03:09:01.967Z,1.67
2018-01-05T03:11:29.731Z,1.70
2018-01-05T03:13:57.500Z,2.23
2018-01-05T03:16:24.999Z,0.90
2018-01-05T03:18:53.700Z,2.40
2018-01-05T03:21:21.538Z,2.23
2018-01-05T03:23:49.052Z,1.87
2018-01-05T03:26:16.620Z,2.27
2018-01-05T03:28:44.139Z,2.10
2018-01-05T03:31:12.460Z,1.97
2018-01-05T03:33:39.959Z,2.03
2018-01-05T03:36:07.460Z,1.67
2018-01-05T03:38:35.131Z,1.83
2018-01-05T03:41:02.661Z,2.07
2018-01-05T03:43:30.352Z,1.50
2018-01-05T03:45:57.856Z,2.10
2018-01-05T03:48:25.571Z,1.50
2018-01-05T03:50:53.076Z,1.50
2018-01-05T03:53:21.396Z,1.97
2018-01-05T03:55:48.896Z,1.60
2018-01-05T03:58:17.891Z,1.77
2018-01-05T04:00:45.899Z,1.30
2018-01-05T04:03:13.943Z,1.20
2018-01-05T04:05:41.451Z,1.50
2018-01-05T04:08:08.950Z,1.80
2018-01-05T04:10:36.651Z,1.30
2018-01-05T04:13:04.538Z,1.60
2018-01-05T04:15:32.195Z,1.50
2018-01-05T04:18:00.204Z,2.23
2018-01-05T04:20:27.728Z,1.73
2018-01-05T04:22:55.227Z,1.57
2018-01-05T04:25:22.906Z,1.60
2018-01-05T04:27:51.935Z,1.50
2018-01-05T04:30:19.434Z,1.90
2018-01-05T04:32:47.771Z,1.13
2018-01-05T04:35:15.267Z,1.83
2018-01-05T04:37:43.282Z,1.90
2018-01-05T04:40:10.768Z,2.13
2018-01-05T04:42:38.881Z,1.80
2018-01-05T04:45:06.560Z,1.60
2018-01-05T04:47:34.458Z,2.20
2018-01-05T04:50:02.427Z,2.37
2018-01-05T04:52:29.929Z,1.97
2018-01-05T04:54:58.219Z,1.80
2018-01-05T04:57:26.039Z,2.33
2018-01-05T04:59:53.544Z,2.20
2018-01-05T05:02:21.055Z,2.90
2018-01-05T05:04:48.764Z,1.47
2018-01-05T05:07:16.746Z,2.23
2018-01-05T05:09:44.819Z,1.80
2018-01-05T05:12:12.344Z,2.20
2018-01-05T05:14:40.064Z,2.13
2018-01-05T05:17:07.559Z,1.77
2018-01-05T05:19:35.264Z,2.50
2018-01-05T05:22:02.755Z,1.77
2018-01-05T05:24:30.251Z,2.63
2018-01-05T05:26:57.959Z,2.20
2018-01-05T05:29:25.860Z,2.47
2018-01-05T05:31:53.363Z,1.80
2018-01-05T05:34:20.876Z,1.87
2018-01-05T05:36:49.326Z,2.07
2018-01-05T05:39:16.823Z,2.40
2018-01-05T05:41:44.513Z,2.20
2018-01-05T05:44:12.614Z,3.10
2018-01-05T05:46:40.376Z,1.97
2018-01-05T05:49:08.516Z,2.33
2018-01-05T05:51:36.223Z,1.90
2018-01-05T05:54:03.728Z,1.83
2018-01-05T05:56:31.402Z,1.67
2018-01-05T05:58:58.900Z,1.17
2018-01-05T06:01:26.391Z,1.60
2018-01-05T06:03:54.699Z,2.43
2018-01-05T06:06:22.178Z,1.90
2018-01-05T06:08:49.681Z,2.53
2018-01-05T06:11:17.190Z,2.00
2018-01-05T06:13:44.963Z,1.50
2018-01-05T06:16:12.459Z,1.20
2018-01-05T06:18:40.956Z,2.47
2018-01-05T06:21:08.451Z,1.60
2018-01-05T06:23:36.066Z,1.20
2018-01-05T06:26:03.671Z,1.70
2018-01-05T06:28:31.175Z,2.23
2018-01-05T06:30:59.118Z,1.87
2018-01-05T06:33:26.632Z,1.90
2018-01-05T06:35:54.144Z,1.97
2018-01-05T06:38:21.646Z,1.47
2018-01-05T06:40:49.310Z,1.87
2018-01-05T06:43:16.800Z,2.60
2018-01-05T06:45:44.324Z,1.90
2018-01-05T06:48:11.813Z,1.70
2018-01-05T06:50:39.441Z,1.83
2018-01-05T06:53:07.344Z,1.40
2018-01-05T06:55:35.085Z,2.20
2018-01-05T06:58:02.754Z,2.93
2018-01-05T07:00:30.460Z,2.00
2018-01-05T07:02:58.374Z,1.73
2018-01-05T07:05:26.040Z,2.87
2018-01-05T07:07:54.145Z,2.13
2018-01-05T07:10:21.628Z,1.27
2018-01-05T07:12:49.142Z,2.27
2018-01-05T07:15:17.108Z,2.07
2018-01-05T07:17:44.866Z,1.30
2018-01-05T07:20:12.384Z,2.47
2018-01-05T07:22:40.087Z,2.47
2018-01-05T07:25:07.586Z,2.00
2018-01-05T07:27:36.126Z,1.93
2018-01-05T07:30:03.744Z,2.07
2018-01-05T07:32:31.495Z,3.10
2018-01-05T07:34:59.203Z,1.50
2018-01-05T07:37:27.261Z,2.23
2018-01-05T07:39:55.371Z,1.57
2018-01-05T07:42:23.106Z,1.60
2018-01-05T07:44:51.000Z,2.53
2018-01-05T07:47:18.644Z,2.30
2018-01-05T07:49:46.139Z,2.10
2018-01-05T07:52:13.852Z,1.80
2018-01-05T07:54:41.350Z,1.60
2018-01-05T07:57:08.857Z,1.73
2018-01-05T07:59:37.655Z,1.87
2018-01-05T08:02:06.147Z,2.77
2018-01-05T08:04:33.661Z,1.97
2018-01-05T08:07:01.680Z,2.03
2018-01-05T08:09:29.771Z,2.03
2018-01-05T08:11:57.512Z,1.47
2018-01-05T08:14:25.008Z,1.70
2018-01-05T08:16:53.031Z,2.30
2018-01-05T08:19:20.942Z,2.77
2018-01-05T08:21:48.834Z,1.37
2018-01-05T08:24:16.339Z,2.37
2018-01-05T08:26:43.835Z,1.83
2018-01-05T08:29:11.339Z,1.90
2018-01-05T08:31:39.412Z,1.43
2018-01-05T08:34:07.174Z,2.03
2018-01-05T08:36:35.139Z,2.63
2018-01-05T08:39:02.646Z,2.27
2018-01-05T08:41:30.330Z,1.80
2018-01-05T08:43:57.827Z,1.80
2018-01-05T08:46:25.584Z,3.83
2018-01-05T08:48:54.623Z,1.83
2018-01-05T08:51:22.121Z,1.70
2018-01-05T08:53:49.873Z,1.60
2018-01-05T08:56:17.363Z,2.30
2018-01-05T08:58:45.054Z,2.40
2018-01-05T09:01:12.780Z,1.80
2018-01-05T09:03:40.544Z,1.97
2018-01-05T09:06:08.078Z,2.23
2018-01-05T09:08:35.726Z,2.53
2018-01-05T09:11:04.678Z,1.97
2018-01-05T09:13:32.167Z,2.37
2018-01-05T09:15:59.974Z,2.40
2018-01-05T09:18:28.007Z,2.00
2018-01-05T09:20:55.807Z,1.70
2018-01-05T09:23:24.076Z,2.60
2018-01-05T09:25:51.620Z,0.90
2018-01-05T09:28:19.672Z,2.30
2018-01-05T09:30:48.011Z,2.57
2018-01-05T09:33:16.448Z,1.93
2018-01-05T09:35:44.236Z,2.17
2018-01-05T09:38:12.271Z,1.57
2018-01-05T09:40:41.020Z,2.40
2018-01-05T09:43:08.755Z,2.23
2018-01-05T09:45:36.260Z,2.43
2018-01-05T09:48:04.288Z,2.67
2018-01-05T09:50:31.783Z,1.47
2018-01-05T09:53:00.235Z,2.23
2018-01-05T09:55:27.879Z,2.40
2018-01-05T09:57:55.640Z,1.50
2018-01-05T10:00:23.142Z,1.77
2018-01-05T10:02:51.395Z,4.10
2018-01-05T10:05:18.923Z,2.07
2018-01-05T10:07:46.692Z,2.73
2018-01-05T10:10:14.195Z,2.20
2018-01-05T10:12:41.917Z,1.97
2018-01-05T10:15:09.681Z,2.10
2018-01-05T10:17:37.180Z,2.03
2018-01-05T10:20:04.675Z,2.17
2018-01-05T10:22:32.944Z,2.30
2018-01-05T10:25:00.900Z,2.30
2018-01-05T10:27:28.400Z,1.97
2018-01-05T10:29:55.920Z,2.30
2018-01-05T10:32:23.415Z,1.80
2018-01-05T10:34:52.198Z,2.73
2018-01-05T10:37:20.148Z,1.90
2018-01-05T10:39:48.166Z,2.50
2018-01-05T10:42:16.592Z,2.50
2018-01-05T10:44:45.210Z,2.00
2018-01-05T10:47:12.754Z,2.60
2018-01-05T10:49:40.527Z,2.70
2018-01-05T10:52:08.279Z,3.20
2018-01-05T10:54:35.925Z,2.10
2018-01-05T10:57:03.467Z,2.47
2018-01-05T10:59:31.580Z,2.07
2018-01-05T11:01:59.335Z,2.40
2018-01-05T11:04:27.235Z,2.23
2018-01-05T11:06:54.741Z,2.57
2018-01-05T11:09:22.632Z,2.87
2018-01-05T11:11:50.257Z,3.13
2018-01-05T11:14:18.167Z,3.60
2018-01-05T11:16:45.692Z,2.90
2018-01-05T11:19:13.175Z,4.40
2018-01-05T11:21:40.796Z,3.20
2018-01-05T11:24:08.304Z,3.43
2018-01-05T11:26:35.804Z,3.57
2018-01-05T11:29:03.521Z,3.20
2018-01-05T11:31:32.819Z,3.20
2018-01-05T11:34:00.572Z,2.80
2018-01-05T11:36:28.070Z,4.10
2018-01-05T11:38:55.720Z,3.40
2018-01-05T11:41:23.640Z,3.53
2018-01-05T11:43:51.913Z,3.30
2018-01-05T11:46:19.805Z,4.63
2018-01-05T11:48:47.307Z,3.90
2018-01-05T11:51:15.839Z,3.13
2018-01-05T11:53:43.356Z,3.20
2018-01-05T11:56:11.022Z,3.60
2018-01-05T11:58:38.826Z,3.50
2018-01-05T12:01:06.333Z,3.40
2018-01-05T12:03:34.650Z,3.50
2018-01-05T12:06:02.143Z,3.10
2018-01-05T12:08:30.162Z,4.10
2018-01-05T12:10:57.655Z,3.07
2018-01-05T12:13:25.177Z,4.33
2018-01-05T12:15:54.096Z,4.07
2018-01-05T12:18:21.590Z,4.57
2018-01-05T12:20:49.307Z,4.10
2018-01-05T12:23:17.075Z,5.30
2018-01-05T12:25:44.839Z,4.60
2018-01-05T12:28:12.352Z,5.60
2018-01-05T12:30:40.067Z,4.33
2018-01-05T12:33:08.109Z,4.90
2018-01-05T12:35:36.196Z,5.93
2018-01-05T12:38:03.713Z,4.87
2018-01-05T12:40:31.211Z,4.83
2018-01-05T12:42:58.781Z,5.87
2018-01-05T12:45:26.992Z,4.90
2018-01-05T12:47:54.497Z,4.70
2018-01-05T12:50:22.452Z,5.33
2018-01-05T12:52:49.947Z,3.80
2018-01-05T12:55:17.468Z,3.80
2018-01-05T12:57:45.440Z,4.70
2018-01-05T13:00:12.927Z,3.70
2018-01-05T13:02:40.414Z,2.70
2018-01-05T13:05:08.124Z,2.63
2018-01-05T13:07:35.895Z,3.63
2018-01-05T13:10:03.383Z,2.70
2018-01-05T13:12:30.896Z,3.30
2018-01-05T13:14:58.995Z,3.50
2018-01-05T13:17:28.260Z,2.93
2018-01-05T13:19:55.943Z,3.10
2018-01-05T13:22:23.763Z,2.90
2018-01-05T13:24:51.490Z,3.20
2018-01-05T13:27:19.554Z,2.80
2018-01-05T13:29:47.258Z,2.50
2018-01-05T13:32:14.759Z,3.00
2018-01-05T13:34:42.844Z,3.10
2018-01-05T13:37:10.299Z,2.90
2018-01-05T13:39:38.223Z,2.47
2018-01-05T13:42:05.724Z,2.87
2018-01-05T13:44:33.316Z,3.43
2018-01-05T13:47:01.120Z,3.03
2018-01-05T13:49:28.796Z,2.77
2018-01-05T13:51:56.712Z,3.10
2018-01-05T13:54:24.973Z,2.70
2018-01-05T13:56:52.682Z,3.87
2018-01-05T13:59:20.173Z,3.50
2018-01-05T14:01:48.242Z,2.40
2018-01-05T14:04:15.995Z,2.20
2018-01-05T14:06:43.499Z,2.97
2018-01-05T14:09:11.175Z,3.30
2018-01-05T14:11:39.095Z,3.87
2018-01-05T14:14:06.772Z,3.10
2018-01-05T14:16:34.264Z,3.50
2018-01-05T14:19:01.768Z,2.80
2018-01-05T14:21:29.381Z,3.37
2018-01-05T14:23:56.875Z,3.37
2018-01-05T14:26:24.376Z,3.13
2018-01-05T14:28:52.377Z,3.33
2018-01-05T14:31:20.476Z,3.30
2018-01-05T14:33:47.988Z,3.80
2018-01-05T14:36:15.978Z,3.23
2018-01-05T14:38:43.762Z,3.40
2018-01-05T14:41:11.527Z,3.40
2018-01-05T14:43:39.436Z,2.97
2018-01-05T14:46:06.920Z,2.93
2018-01-05T14:48:34.513Z,2.77
2018-01-05T14:51:02.013Z,3.70
2018-01-05T14:53:29.731Z,3.67
2018-01-05T14:55:57.496Z,3.00
2018-01-05T14:58:25.018Z,3.27
2018-01-05T15:00:52.507Z,3.10
2018-01-05T15:03:20.025Z,3.03
2018-01-05T15:05:49.775Z,3.20
2018-01-05T15:08:17.278Z,2.90
2018-01-05T15:10:45.612Z,3.57
2018-01-05T15:13:13.333Z,3.93
2018-01-05T15:15:41.630Z,2.97
2018-01-05T15:18:09.211Z,3.30
2018-01-05T15:20:36.984Z,2.60
2018-01-05T15:23:04.756Z,2.50
2018-01-05T15:25:32.270Z,2.30
2018-01-05T15:27:59.952Z,2.53
2018-01-05T15:30:28.355Z,2.60
2018-01-05T15:32:55.852Z,3.43
2018-01-05T15:35:23.556Z,3.10
2018-01-05T15:37:51.057Z,2.63
2018-01-05T15:40:18.720Z,2.37
2018-01-05T15:42:46.248Z,3.93
2018-01-05T15:45:14.520Z,2.43
2018-01-05T15:47:42.999Z,3.60
2018-01-05T15:50:10.496Z,4.30
2018-01-05T15:52:38.396Z,3.10
2018-01-05T15:55:06.382Z,3.17
2018-01-05T15:57:34.278Z,2.80
2018-01-05T16:00:03.348Z,3.80
2018-01-05T16:02:30.846Z,2.63
2018-01-05T16:04:58.536Z,3.70
2018-01-05T16:07:26.600Z,3.50
2018-01-05T16:09:54.092Z,3.70
2018-01-05T16:12:21.604Z,3.07
2018-01-05T16:14:49.307Z,2.63
2018-01-05T16:17:16.814Z,3.03
2018-01-05T16:19:44.621Z,3.73
2018-01-05T16:22:12.248Z,3.70
2018-01-05T16:24:39.727Z,3.27
2018-01-05T16:27:07.233Z,3.70
2018-01-05T16:29:34.976Z,4.20
2018-01-05T16:32:02.485Z,4.40
2018-01-05T16:34:30.756Z,4.60
2018-01-05T16:36:58.262Z,3.63
2018-01-05T16:39:25.758Z,3.00
2018-01-05T16:41:53.665Z,3.63
2018-01-05T16:44:21.159Z,3.83
2018-01-05T16:46:49.311Z,4.10
2018-01-05T16:49:17.034Z,3.90
2018-01-05T16:51:45.946Z,4.63
2018-01-05T16:54:13.531Z,5.07
2018-01-05T16:56:41.019Z,4.40
2018-01-05T16:59:08.524Z,6.00
2018-01-05T17:01:36.207Z,3.60
2018-01-05T17:04:03.713Z,4.30
2018-01-05T17:06:31.425Z,3.67
2018-01-05T17:08:59.472Z,10.30
2018-01-05T17:11:27.571Z,4.20
2018-01-05T17:13:55.635Z,4.07
2018-01-05T17:16:23.136Z,4.80
2018-01-05T17:18:50.647Z,4.37
2018-01-05T17:21:18.564Z,4.37
2018-01-05T17:23:46.505Z,4.30
2018-01-05T17:26:14.131Z,5.43
2018-01-05T17:28:42.524Z,5.27
2018-01-05T17:31:10.300Z,4.97
2018-01-05T17:33:38.575Z,5.27
2018-01-05T17:36:06.133Z,5.63
2018-01-05T17:38:34.199Z,6.40
2018-01-05T17:41:03.382Z,7.03
2018-01-05T17:43:30.856Z,7.00
2018-01-05T17:45:58.760Z,6.97
2018-01-05T17:48:26.661Z,7.93
2018-01-05T17:50:54.219Z,6.67
2018-01-05T17:53:21.711Z,6.97
2018-01-05T17:55:50.727Z,7.13
2018-01-05T17:58:18.761Z,7.60
2018-01-05T18:00:46.650Z,7.13
2018-01-05T18:03:14.916Z,6.63
2018-01-05T18:05:42.827Z,7.07
2018-01-05T18:08:10.739Z,8.17
2018-01-05T18:10:38.631Z,7.63
2018-01-05T18:13:06.244Z,9.27
2018-01-05T18:15:33.743Z,8.50
2018-01-05T18:18:01.260Z,9.00
2018-01-05T18:20:30.183Z,10.57
2018-01-05T18:22:57.683Z,10.90
2018-01-05T18:25:25.207Z,8.20
2018-01-05T18:27:53.136Z,10.03
2018-01-05T18:30:20.631Z,9.73
2018-01-05T18:32:48.612Z,9.27
2018-01-05T18:35:16.669Z,9.83
2018-01-05T18:37:44.274Z,13.70
2018-01-05T18:40:11.767Z,9.23
2018-01-05T18:42:39.275Z,11.00
2018-01-05T18:45:07.548Z,16.30
2018-01-05T18:47:35.057Z,18.60
2018-01-05T18:50:03.377Z,11.73
2018-01-05T18:52:31.711Z,11.30
2018-01-05T18:54:59.215Z,11.50
2018-01-05T18:57:26.741Z,11.70
2018-01-05T18:59:54.398Z,11.70
2018-01-05T19:02:22.768Z,11.27
2018-01-05T19:04:50.660Z,11.50
2018-01-05T19:07:18.292Z,14.77
2018-01-05T19:09:46.197Z,11.87
2018-01-05T19:12:14.533Z,11.43
2018-01-05T19:14:42.044Z,11.50
2018-01-05T19:17:10.315Z,12.27
2018-01-05T19:19:38.221Z,13.50
2018-01-05T19:22:05.777Z,11.53
2018-01-05T19:24:33.695Z,12.40
2018-01-05T19:27:01.304Z,12.17
2018-01-05T19:29:29.359Z,10.70
2018-01-05T19:31:57.476Z,11.27
2018-01-05T19:34:24.983Z,11.03
2018-01-05T19:36:53.255Z,13.00
2018-01-05T19:39:21.069Z,11.33
2018-01-05T19:41:49.427Z,11.93
2018-01-05T19:44:17.211Z,11.60
2018-01-05T19:46:44.974Z,12.60
2018-01-05T19:49:13.323Z,11.77
2018-01-05T19:51:40.823Z,13.00
2018-01-05T19:54:08.335Z,12.60
2018-01-05T19:56:35.899Z,13.13
2018-01-05T19:59:03.407Z,14.23
2018-01-05T20:01:30.903Z,13.40
2018-01-05T20:03:59.025Z,14.33
2018-01-05T20:06:26.523Z,15.50
2018-01-05T20:08:54.263Z,15.30
2018-01-05T20:11:21.731Z,17.43
2018-01-05T20:13:50.180Z,18.60
2018-01-05T20:16:18.472Z,12.47
2018-01-05T20:18:45.993Z,12.30
2018-01-05T20:21:13.939Z,13.47
2018-01-05T20:23:42.140Z,13.00
2018-01-05T20:26:09.803Z,13.03
2018-01-05T20:28:38.186Z,13.63
2018-01-05T20:31:06.218Z,12.37
2018-01-05T20:33:33.738Z,13.77
2018-01-05T20:36:01.475Z,12.10
2018-01-05T20:38:28.983Z,12.70
2018-01-05T20:40:56.662Z,13.10
2018-01-05T20:43:24.572Z,12.47
2018-01-05T20:45:52.492Z,11.50
2018-01-05T20:48:20.601Z,12.43
2018-01-05T20:50:48.365Z,11.60
2018-01-05T20:53:15.866Z,13.10
2018-01-05T20:55:43.381Z,13.30
2018-01-05T20:58:11.042Z,15.10
2018-01-05T21:00:38.665Z,13.13
2018-01-05T21:03:06.268Z,13.43
2018-01-05T21:05:34.325Z,13.00
2018-01-05T21:08:02.097Z,14.03
2018-01-05T21:10:29.604Z,12.57
2018-01-05T21:12:57.311Z,12.20
2018-01-05T21:15:25.331Z,12.70
2018-01-05T21:17:52.826Z,14.40
2018-01-05T21:20:20.330Z,13.07
2018-01-05T21:22:48.059Z,15.47
2018-01-05T21:25:15.823Z,16.70
2018-01-05T21:27:43.893Z,15.87
2018-01-05T21:30:11.400Z,14.83
2018-01-05T21:32:39.726Z,16.53
2018-01-05T21:35:07.504Z,16.50
2018-01-05T21:37:37.278Z,15.87
2018-01-05T21:40:04.877Z,14.87
2018-01-05T21:42:32.650Z,14.17
2018-01-05T21:45:00.163Z,15.47
2018-01-05T21:47:27.973Z,16.70
2018-01-05T21:49:56.973Z,15.40
2018-01-05T21:52:24.497Z,13.20
2018-01-05T21:54:52.176Z,15.40
2018-01-05T21:57:21.337Z,15.20
2018-01-05T21:59:49.691Z,15.63
2018-01-05T22:02:17.204Z,14.93
2018-01-05T22:04:44.699Z,15.03
2018-01-05T22:07:12.412Z,13.80
2018-01-05T22:09:40.277Z,16.30
2018-01-05T22:12:08.871Z,14.40
2018-01-05T22:14:36.582Z,14.60
2018-01-05T22:17:04.395Z,15.20
2018-01-05T22:19:32.457Z,15.27
2018-01-05T22:22:00.795Z,16.67
2018-01-05T22:24:29.987Z,15.97
2018-01-05T22:26:57.619Z,15.70
2018-01-05T22:29:25.183Z,15.00
2018-01-05T22:31:52.716Z,16.20
2018-01-05T22:34:20.226Z,14.97
2018-01-05T22:36:47.727Z,15.43
2018-01-05T22:39:15.451Z,13.70
2018-01-05T22:41:44.170Z,16.03
2018-01-05T22:44:12.266Z,16.13
2018-01-05T22:46:39.879Z,18.80
2018-01-05T22:49:07.380Z,23.30
2018-01-05T22:51:36.530Z,17.93
2018-01-05T22:54:04.532Z,16.50
2018-01-05T22:56:32.295Z,17.40
2018-01-05T22:59:00.059Z,16.70
2018-01-05T23:01:28.127Z,16.33
2018-01-05T23:03:56.401Z,16.47
2018-01-05T23:06:24.872Z,16.17
2018-01-05T23:08:52.511Z,16.10
2018-01-05T23:11:21.334Z,15.20
2018-01-05T23:13:48.944Z,17.10
2018-01-05T23:16:17.479Z,17.70
2018-01-05T23:18:45.392Z,19.00
2018-01-05T23:21:13.659Z,17.87
2018-01-05T23:23:41.163Z,17.50
2018-01-05T23:26:09.452Z,16.27
2018-01-05T23:28:36.952Z,18.57
2018-01-05T23:31:04.856Z,18.00
2018-01-05T23:33:32.682Z,19.00
2018-01-05T23:36:01.878Z,16.30
2018-01-05T23:38:30.464Z,21.40
2018-01-05T23:40:57.964Z,18.77
2018-01-05T23:43:25.468Z,16.30
2018-01-05T23:45:54.130Z,17.07
2018-01-05T23:48:22.016Z,17.30
2018-01-05T23:50:49.543Z,16.90
2018-01-05T23:53:18.682Z,19.23
2018-01-05T23:55:46.183Z,17.30
2018-01-05T23:58:13.716Z,17.00
